Tekirdag, Turkey
Current Conditions -  °F | °C
As of 5:50 PM on Friday 31 Oct 2014 (Local Time) from LTBU Reporting Station
Rain Showers Rain Showers  
Wind Chill: 39°   Ceiling: 3000
Heat Index: 45°   Visibility: 1.2mi
Dew Point: 45°   Wind: 12mph
Humidity: 100%   Direction: 340°NNW
Pressure: 30.15"   Gusts: NA
Location:  40.98°N, 27.52°E
Report Text: LTBU 311450Z 34010KT 2000 -SHRA BR SCT012 BKN030 BKN080 07/07 Q1021
Loading
Personal Weather Stations






























Interactive Weather Map
Tropical Storm Tracking
New forecast layout! Learn more

10-Day Weather Forecast

Advertisements
Track Severe Weather on mobile